sensor_id;sensor_type;location;lat;lon;timestamp;temperature;humidity
3758;DHT22;1894;51.038;13.692;2022-11-15T00:01:50;5.60;99.90
3758;DHT22;1894;51.038;13.692;2022-11-15T00:04:36;5.50;99.90
3758;DHT22;1894;51.038;13.692;2022-11-15T00:07:21;5.50;99.90
3758;DHT22;1894;51.038;13.692;2022-11-15T00:10:27;5.50;99.90
3758;DHT22;1894;51.038;13.692;2022-11-15T00:13:13;5.50;99.90
3758;DHT22;1894;51.038;13.692;2022-11-15T00:16:00;5.50;99.90
3758;DHT22;1894;51.038;13.692;2022-11-15T00:18:46;5.40;99.90
3758;DHT22;1894;51.038;13.692;2022-11-15T00:21:35;5.50;99.90
3758;DHT22;1894;51.038;13.692;2022-11-15T00:24:21;5.60;99.90
3758;DHT22;1894;51.038;13.692;2022-11-15T00:27:06;5.60;99.90
3758;DHT22;1894;51.038;13.692;2022-11-15T00:29:52;5.60;99.90
3758;DHT22;1894;51.038;13.692;2022-11-15T00:32:38;5.70;99.90
3758;DHT22;1894;51.038;13.692;2022-11-15T00:35:24;5.90;99.90
3758;DHT22;1894;51.038;13.692;2022-11-15T00:38:10;6.00;99.90
3758;DHT22;1894;51.038;13.692;2022-11-15T00:40:56;6.00;99.90
3758;DHT22;1894;51.038;13.692;2022-11-15T00:43:41;6.10;99.90
3758;DHT22;1894;51.038;13.692;2022-11-15T00:46:29;6.00;99.90
3758;DHT22;1894;51.038;13.692;2022-11-15T00:49:14;6.00;99.90
3758;DHT22;1894;51.038;13.692;2022-11-15T00:52:00;6.00;99.90
3758;DHT22;1894;51.038;13.692;2022-11-15T00:54:45;5.90;99.90
3758;DHT22;1894;51.038;13.692;2022-11-15T00:57:31;5.90;99.90
3758;DHT22;1894;51.038;13.692;2022-11-15T01:00:17;5.90;99.90
3758;DHT22;1894;51.038;13.692;2022-11-15T01:03:02;5.80;99.90
3758;DHT22;1894;51.038;13.692;2022-11-15T01:05:48;5.80;99.90
3758;DHT22;1894;51.038;13.692;2022-11-15T01:08:34;5.60;99.90
3758;DHT22;1894;51.038;13.692;2022-11-15T01:11:19;5.50;99.90
3758;DHT22;1894;51.038;13.692;2022-11-15T01:14:05;5.50;99.90
3758;DHT22;1894;51.038;13.692;2022-11-15T01:16:50;5.40;99.90
3758;DHT22;1894;51.038;13.692;2022-11-15T01:19:36;5.30;99.90
3758;DHT22;1894;51.038;13.692;2022-11-15T01:22:22;5.40;99.90
3758;DHT22;1894;51.038;13.692;2022-11-15T01:25:07;5.40;99.90
3758;DHT22;1894;51.038;13.692;2022-11-15T01:27:53;5.30;99.90
3758;DHT22;1894;51.038;13.692;2022-11-15T01:30:38;5.40;99.90
3758;DHT22;1894;51.038;13.692;2022-11-15T01:33:24;5.30;99.90
3758;DHT22;1894;51.038;13.692;2022-11-15T01:36:21;5.10;99.90
3758;DHT22;1894;51.038;13.692;2022-11-15T01:39:08;5.00;99.90
3758;DHT22;1894;51.038;13.692;2022-11-15T01:41:54;5.10;99.90
3758;DHT22;1894;51.038;13.692;2022-11-15T01:44:49;5.20;99.90
3758;DHT22;1894;51.038;13.692;2022-11-15T01:47:38;5.10;99.90
3758;DHT22;1894;51.038;13.692;2022-11-15T01:50:29;5.00;99.90
3758;DHT22;1894;51.038;13.692;2022-11-15T01:53:18;5.10;99.90
3758;DHT22;1894;51.038;13.692;2022-11-15T01:56:08;5.00;99.90
3758;DHT22;1894;51.038;13.692;2022-11-15T01:58:57;5.10;99.90
3758;DHT22;1894;51.038;13.692;2022-11-15T02:01:44;5.10;99.90
3758;DHT22;1894;51.038;13.692;2022-11-15T02:04:32;5.10;99.90
3758;DHT22;1894;51.038;13.692;2022-11-15T02:07:21;5.20;99.90
3758;DHT22;1894;51.038;13.692;2022-11-15T02:10:14;5.20;99.90
3758;DHT22;1894;51.038;13.692;2022-11-15T02:13:03;5.30;99.90
3758;DHT22;1894;51.038;13.692;2022-11-15T02:29:07;5.60;99.90
3758;DHT22;1894;51.038;13.692;2022-11-15T02:31:58;5.60;99.90
3758;DHT22;1894;51.038;13.692;2022-11-15T02:35:00;5.60;99.90
3758;DHT22;1894;51.038;13.692;2022-11-15T02:37:59;5.70;99.90
3758;DHT22;1894;51.038;13.692;2022-11-15T02:41:14;5.80;99.90
3758;DHT22;1894;51.038;13.692;2022-11-15T02:44:36;5.80;99.90
3758;DHT22;1894;51.038;13.692;2022-11-15T02:47:27;5.80;99.90
3758;DHT22;1894;51.038;13.692;2022-11-15T02:50:18;5.80;99.90
3758;DHT22;1894;51.038;13.692;2022-11-15T02:53:06;5.80;99.90
3758;DHT22;1894;51.038;13.692;2022-11-15T02:55:53;5.80;99.90
3758;DHT22;1894;51.038;13.692;2022-11-15T03:11:36;5.80;99.90
3758;DHT22;1894;51.038;13.692;2022-11-15T03:14:35;5.80;99.90
3758;DHT22;1894;51.038;13.692;2022-11-15T03:17:30;5.70;99.90
3758;DHT22;1894;51.038;13.692;2022-11-15T03:20:21;5.80;99.90
3758;DHT22;1894;51.038;13.692;2022-11-15T03:23:09;5.80;99.90
3758;DHT22;1894;51.038;13.692;2022-11-15T03:25:58;5.80;99.90
3758;DHT22;1894;51.038;13.692;2022-11-15T03:29:01;5.80;99.90
3758;DHT22;1894;51.038;13.692;2022-11-15T03:31:55;5.80;99.90
3758;DHT22;1894;51.038;13.692;2022-11-15T03:34:56;5.90;99.90
3758;DHT22;1894;51.038;13.692;2022-11-15T03:38:11;5.90;99.90
3758;DHT22;1894;51.038;13.692;2022-11-15T03:41:06;5.90;99.90
3758;DHT22;1894;51.038;13.692;2022-11-15T03:44:40;5.80;99.90
3758;DHT22;1894;51.038;13.692;2022-11-15T03:47:54;5.80;99.90
3758;DHT22;1894;51.038;13.692;2022-11-15T03:50:45;5.80;99.90
3758;DHT22;1894;51.038;13.692;2022-11-15T03:53:31;5.80;99.90
3758;DHT22;1894;51.038;13.692;2022-11-15T03:56:18;5.80;99.90
3758;DHT22;1894;51.038;13.692;2022-11-15T03:59:03;5.80;99.90
3758;DHT22;1894;51.038;13.692;2022-11-15T04:01:49;5.80;99.90
3758;DHT22;1894;51.038;13.692;2022-11-15T04:04:34;5.80;99.90
3758;DHT22;1894;51.038;13.692;2022-11-15T04:07:20;5.80;99.90
3758;DHT22;1894;51.038;13.692;2022-11-15T04:10:06;5.80;99.90
3758;DHT22;1894;51.038;13.692;2022-11-15T04:12:53;5.80;99.90
3758;DHT22;1894;51.038;13.692;2022-11-15T04:15:38;5.90;99.90
3758;DHT22;1894;51.038;13.692;2022-11-15T04:18:24;5.90;99.90
3758;DHT22;1894;51.038;13.692;2022-11-15T04:21:09;5.90;99.90
3758;DHT22;1894;51.038;13.692;2022-11-15T04:24:13;5.90;99.90
3758;DHT22;1894;51.038;13.692;2022-11-15T04:26:59;5.90;99.90
3758;DHT22;1894;51.038;13.692;2022-11-15T04:29:45;5.90;99.90
3758;DHT22;1894;51.038;13.692;2022-11-15T04:32:30;5.90;99.90
3758;DHT22;1894;51.038;13.692;2022-11-15T04:35:16;5.90;99.90
3758;DHT22;1894;51.038;13.692;2022-11-15T04:38:03;5.90;99.90
3758;DHT22;1894;51.038;13.692;2022-11-15T04:40:50;5.80;99.90
3758;DHT22;1894;51.038;13.692;2022-11-15T04:43:35;5.80;99.90
3758;DHT22;1894;51.038;13.692;2022-11-15T04:46:21;5.80;99.90
3758;DHT22;1894;51.038;13.692;2022-11-15T04:49:07;5.80;99.90
3758;DHT22;1894;51.038;13.692;2022-11-15T04:51:53;5.80;99.90
3758;DHT22;1894;51.038;13.692;2022-11-15T04:54:38;5.80;99.90
3758;DHT22;1894;51.038;13.692;2022-11-15T04:57:24;5.90;99.90
3758;DHT22;1894;51.038;13.692;2022-11-15T05:00:11;5.90;99.90
3758;DHT22;1894;51.038;13.692;2022-11-15T05:02:58;5.90;99.90
3758;DHT22;1894;51.038;13.692;2022-11-15T05:06:03;5.80;99.90
3758;DHT22;1894;51.038;13.692;2022-11-15T05:08:48;5.80;99.90
3758;DHT22;1894;51.038;13.692;2022-11-15T05:11:34;5.80;99.90
3758;DHT22;1894;51.038;13.692;2022-11-15T05:14:20;5.80;99.90
3758;DHT22;1894;51.038;13.692;2022-11-15T05:17:05;5.80;99.90
3758;DHT22;1894;51.038;13.692;2022-11-15T05:19:50;5.80;99.90
3758;DHT22;1894;51.038;13.692;2022-11-15T05:22:37;5.80;99.90
3758;DHT22;1894;51.038;13.692;2022-11-15T05:25:22;5.80;99.90
3758;DHT22;1894;51.038;13.692;2022-11-15T05:28:08;5.70;99.90
3758;DHT22;1894;51.038;13.692;2022-11-15T05:31:04;5.80;99.90
3758;DHT22;1894;51.038;13.692;2022-11-15T05:33:55;5.80;99.90
3758;DHT22;1894;51.038;13.692;2022-11-15T05:36:43;5.80;99.90
3758;DHT22;1894;51.038;13.692;2022-11-15T05:39:30;5.80;99.90
3758;DHT22;1894;51.038;13.692;2022-11-15T05:42:16;5.80;99.90
3758;DHT22;1894;51.038;13.692;2022-11-15T05:45:06;5.80;99.90
3758;DHT22;1894;51.038;13.692;2022-11-15T05:47:52;5.90;99.90
3758;DHT22;1894;51.038;13.692;2022-11-15T05:50:41;5.80;99.90
3758;DHT22;1894;51.038;13.692;2022-11-15T05:53:29;5.80;99.90
3758;DHT22;1894;51.038;13.692;2022-11-15T05:56:16;5.80;99.90
3758;DHT22;1894;51.038;13.692;2022-11-15T05:59:02;5.80;99.90
3758;DHT22;1894;51.038;13.692;2022-11-15T06:01:48;5.80;99.90
3758;DHT22;1894;51.038;13.692;2022-11-15T06:04:34;5.80;99.90
3758;DHT22;1894;51.038;13.692;2022-11-15T06:07:20;5.90;99.90
3758;DHT22;1894;51.038;13.692;2022-11-15T06:10:07;5.90;99.90
3758;DHT22;1894;51.038;13.692;2022-11-15T06:13:01;6.00;99.90
3758;DHT22;1894;51.038;13.692;2022-11-15T06:15:48;6.00;99.90
3758;DHT22;1894;51.038;13.692;2022-11-15T06:18:34;6.00;99.90
3758;DHT22;1894;51.038;13.692;2022-11-15T06:21:20;6.00;99.90
3758;DHT22;1894;51.038;13.692;2022-11-15T06:24:06;6.00;99.90
3758;DHT22;1894;51.038;13.692;2022-11-15T06:26:53;6.00;99.90
3758;DHT22;1894;51.038;13.692;2022-11-15T06:29:38;6.00;99.90
3758;DHT22;1894;51.038;13.692;2022-11-15T06:32:24;6.00;99.90
3758;DHT22;1894;51.038;13.692;2022-11-15T06:35:11;6.00;99.90
3758;DHT22;1894;51.038;13.692;2022-11-15T06:38:05;6.00;99.90
3758;DHT22;1894;51.038;13.692;2022-11-15T06:40:52;6.00;99.90
3758;DHT22;1894;51.038;13.692;2022-11-15T06:43:38;6.00;99.90
3758;DHT22;1894;51.038;13.692;2022-11-15T06:46:25;6.10;99.90
3758;DHT22;1894;51.038;13.692;2022-11-15T06:49:10;6.10;99.90
3758;DHT22;1894;51.038;13.692;2022-11-15T06:51:55;6.10;99.90
3758;DHT22;1894;51.038;13.692;2022-11-15T06:54:41;6.20;99.90
3758;DHT22;1894;51.038;13.692;2022-11-15T06:57:26;6.30;99.90
3758;DHT22;1894;51.038;13.692;2022-11-15T07:00:12;6.40;99.90
3758;DHT22;1894;51.038;13.692;2022-11-15T07:03:02;6.40;99.90
3758;DHT22;1894;51.038;13.692;2022-11-15T07:05:52;6.40;99.90
3758;DHT22;1894;51.038;13.692;2022-11-15T07:08:39;6.50;99.90
3758;DHT22;1894;51.038;13.692;2022-11-15T07:11:27;6.60;99.90
3758;DHT22;1894;51.038;13.692;2022-11-15T07:14:12;6.60;99.90
3758;DHT22;1894;51.038;13.692;2022-11-15T07:16:58;6.70;99.90
3758;DHT22;1894;51.038;13.692;2022-11-15T07:19:43;6.70;99.90
3758;DHT22;1894;51.038;13.692;2022-11-15T07:22:28;6.70;99.90
3758;DHT22;1894;51.038;13.692;2022-11-15T07:25:14;6.80;99.90
3758;DHT22;1894;51.038;13.692;2022-11-15T07:28:00;6.90;99.90
3758;DHT22;1894;51.038;13.692;2022-11-15T07:30:46;6.90;99.90
3758;DHT22;1894;51.038;13.692;2022-11-15T07:33:32;7.00;99.90
3758;DHT22;1894;51.038;13.692;2022-11-15T07:36:18;7.00;99.90
3758;DHT22;1894;51.038;13.692;2022-11-15T07:39:04;7.10;99.90
3758;DHT22;1894;51.038;13.692;2022-11-15T07:41:49;7.30;99.90
3758;DHT22;1894;51.038;13.692;2022-11-15T07:44:55;7.30;99.90
3758;DHT22;1894;51.038;13.692;2022-11-15T07:47:45;7.30;99.90
3758;DHT22;1894;51.038;13.692;2022-11-15T07:50:32;7.40;99.90
3758;DHT22;1894;51.038;13.692;2022-11-15T07:53:17;7.40;99.90
3758;DHT22;1894;51.038;13.692;2022-11-15T07:56:06;7.50;99.90
3758;DHT22;1894;51.038;13.692;2022-11-15T07:58:52;7.60;99.90
3758;DHT22;1894;51.038;13.692;2022-11-15T08:01:38;7.70;99.90
3758;DHT22;1894;51.038;13.692;2022-11-15T08:04:24;7.70;99.90
3758;DHT22;1894;51.038;13.692;2022-11-15T08:07:09;7.80;99.90
3758;DHT22;1894;51.038;13.692;2022-11-15T08:09:55;7.80;99.90
3758;DHT22;1894;51.038;13.692;2022-11-15T08:12:41;7.90;99.90
3758;DHT22;1894;51.038;13.692;2022-11-15T08:15:28;7.90;99.90
3758;DHT22;1894;51.038;13.692;2022-11-15T08:18:15;8.10;99.90
3758;DHT22;1894;51.038;13.692;2022-11-15T08:21:02;8.10;99.90
3758;DHT22;1894;51.038;13.692;2022-11-15T08:23:48;8.20;99.90
3758;DHT22;1894;51.038;13.692;2022-11-15T08:26:33;8.20;99.90
3758;DHT22;1894;51.038;13.692;2022-11-15T08:29:19;8.20;99.90
3758;DHT22;1894;51.038;13.692;2022-11-15T08:32:05;8.20;99.90
3758;DHT22;1894;51.038;13.692;2022-11-15T08:34:51;8.40;99.90
3758;DHT22;1894;51.038;13.692;2022-11-15T08:37:36;8.40;99.90
3758;DHT22;1894;51.038;13.692;2022-11-15T08:40:22;8.50;99.90
3758;DHT22;1894;51.038;13.692;2022-11-15T08:43:08;8.70;99.90
3758;DHT22;1894;51.038;13.692;2022-11-15T08:45:58;8.70;99.90
3758;DHT22;1894;51.038;13.692;2022-11-15T08:48:44;8.80;99.90
3758;DHT22;1894;51.038;13.692;2022-11-15T08:51:30;8.80;99.90
3758;DHT22;1894;51.038;13.692;2022-11-15T08:54:15;9.00;99.90
3758;DHT22;1894;51.038;13.692;2022-11-15T08:57:01;9.10;99.90
3758;DHT22;1894;51.038;13.692;2022-11-15T08:59:47;9.20;99.90
3758;DHT22;1894;51.038;13.692;2022-11-15T09:02:32;9.20;99.90
3758;DHT22;1894;51.038;13.692;2022-11-15T09:05:18;9.20;99.90
3758;DHT22;1894;51.038;13.692;2022-11-15T09:08:04;9.40;99.90
3758;DHT22;1894;51.038;13.692;2022-11-15T09:11:10;9.40;99.90
3758;DHT22;1894;51.038;13.692;2022-11-15T09:13:56;9.50;99.90
3758;DHT22;1894;51.038;13.692;2022-11-15T09:16:41;9.50;99.90
3758;DHT22;1894;51.038;13.692;2022-11-15T09:19:27;9.60;99.90
3758;DHT22;1894;51.038;13.692;2022-11-15T09:22:13;9.80;99.90
3758;DHT22;1894;51.038;13.692;2022-11-15T09:24:58;10.00;99.90
3758;DHT22;1894;51.038;13.692;2022-11-15T09:27:44;9.90;99.90
3758;DHT22;1894;51.038;13.692;2022-11-15T09:30:29;9.90;99.90
3758;DHT22;1894;51.038;13.692;2022-11-15T09:33:15;10.00;99.90
3758;DHT22;1894;51.038;13.692;2022-11-15T09:36:02;10.10;99.90
3758;DHT22;1894;51.038;13.692;2022-11-15T09:38:49;10.20;99.90
3758;DHT22;1894;51.038;13.692;2022-11-15T09:48:19;10.40;99.90
3758;DHT22;1894;51.038;13.692;2022-11-15T09:51:33;10.40;99.90
3758;DHT22;1894;51.038;13.692;2022-11-15T09:57:09;10.80;99.90
3758;DHT22;1894;51.038;13.692;2022-11-15T10:05:18;10.70;99.90
3758;DHT22;1894;51.038;13.692;2022-11-15T10:08:01;10.60;99.90
3758;DHT22;1894;51.038;13.692;2022-11-15T10:13:25;10.90;99.90
3758;DHT22;1894;51.038;13.692;2022-11-15T10:16:52;10.90;99.90
3758;DHT22;1894;51.038;13.692;2022-11-15T10:19:23;10.80;99.90
3758;DHT22;1894;51.038;13.692;2022-11-15T10:25:17;11.00;99.90
3758;DHT22;1894;51.038;13.692;2022-11-15T10:30:49;11.10;99.90
3758;DHT22;1894;51.038;13.692;2022-11-15T10:33:38;11.20;99.90
3758;DHT22;1894;51.038;13.692;2022-11-15T10:49:28;11.20;99.90
3758;DHT22;1894;51.038;13.692;2022-11-15T10:57:51;12.30;99.90
3758;DHT22;1894;51.038;13.692;2022-11-15T11:00:26;12.80;99.90
3758;DHT22;1894;51.038;13.692;2022-11-15T11:05:38;13.60;99.90
3758;DHT22;1894;51.038;13.692;2022-11-15T11:10:39;14.50;99.90
3758;DHT22;1894;51.038;13.692;2022-11-15T11:13:28;15.40;99.90
3758;DHT22;1894;51.038;13.692;2022-11-15T11:19:18;17.10;99.90
3758;DHT22;1894;51.038;13.692;2022-11-15T11:25:32;18.10;99.90
3758;DHT22;1894;51.038;13.692;2022-11-15T11:40:28;20.60;99.90
3758;DHT22;1894;51.038;13.692;2022-11-15T11:46:48;20.60;99.00
3758;DHT22;1894;51.038;13.692;2022-11-15T11:50:02;22.00;95.80
3758;DHT22;1894;51.038;13.692;2022-11-15T11:52:22;22.60;93.10
3758;DHT22;1894;51.038;13.692;2022-11-15T12:00:55;21.80;93.20
3758;DHT22;1894;51.038;13.692;2022-11-15T12:03:51;22.00;91.60
3758;DHT22;1894;51.038;13.692;2022-11-15T12:06:38;22.30;90.80
3758;DHT22;1894;51.038;13.692;2022-11-15T12:09:17;22.20;91.10
3758;DHT22;1894;51.038;13.692;2022-11-15T12:15:14;23.60;85.70
3758;DHT22;1894;51.038;13.692;2022-11-15T12:17:44;23.30;84.80
3758;DHT22;1894;51.038;13.692;2022-11-15T12:20:16;22.30;86.50
3758;DHT22;1894;51.038;13.692;2022-11-15T12:26:15;22.70;87.30
3758;DHT22;1894;51.038;13.692;2022-11-15T12:36:47;23.70;79.00
3758;DHT22;1894;51.038;13.692;2022-11-15T12:39:17;24.10;78.70
3758;DHT22;1894;51.038;13.692;2022-11-15T12:47:03;23.60;77.80
3758;DHT22;1894;51.038;13.692;2022-11-15T13:00:36;22.60;79.60
3758;DHT22;1894;51.038;13.692;2022-11-15T13:03:16;23.30;77.60
3758;DHT22;1894;51.038;13.692;2022-11-15T13:08:35;23.50;76.70
3758;DHT22;1894;51.038;13.692;2022-11-15T13:11:42;24.50;74.80
3758;DHT22;1894;51.038;13.692;2022-11-15T13:22:53;22.00;79.40
3758;DHT22;1894;51.038;13.692;2022-11-15T13:26:01;22.30;77.90
3758;DHT22;1894;51.038;13.692;2022-11-15T13:28:47;22.10;78.00
3758;DHT22;1894;51.038;13.692;2022-11-15T13:31:30;22.80;76.60
3758;DHT22;1894;51.038;13.692;2022-11-15T13:34:22;22.40;78.10
3758;DHT22;1894;51.038;13.692;2022-11-15T13:39:49;21.30;83.00
3758;DHT22;1894;51.038;13.692;2022-11-15T13:42:20;21.30;82.90
3758;DHT22;1894;51.038;13.692;2022-11-15T13:44:56;21.00;84.00
3758;DHT22;1894;51.038;13.692;2022-11-15T13:47:28;21.00;82.50
3758;DHT22;1894;51.038;13.692;2022-11-15T13:49:59;21.90;81.40
3758;DHT22;1894;51.038;13.692;2022-11-15T13:52:37;21.50;80.60
3758;DHT22;1894;51.038;13.692;2022-11-15T13:55:17;21.20;80.20
3758;DHT22;1894;51.038;13.692;2022-11-15T13:57:51;20.30;84.10
3758;DHT22;1894;51.038;13.692;2022-11-15T14:03:17;20.40;84.10
3758;DHT22;1894;51.038;13.692;2022-11-15T14:06:13;19.40;86.70
3758;DHT22;1894;51.038;13.692;2022-11-15T14:11:37;16.10;99.90
3758;DHT22;1894;51.038;13.692;2022-11-15T14:14:15;14.80;99.90
3758;DHT22;1894;51.038;13.692;2022-11-15T14:16:51;14.00;99.90
3758;DHT22;1894;51.038;13.692;2022-11-15T14:22:11;12.40;99.90
3758;DHT22;1894;51.038;13.692;2022-11-15T14:27:42;12.00;99.90
3758;DHT22;1894;51.038;13.692;2022-11-15T14:30:15;11.80;99.90
3758;DHT22;1894;51.038;13.692;2022-11-15T14:32:45;11.50;99.90
3758;DHT22;1894;51.038;13.692;2022-11-15T14:35:19;11.40;99.90
3758;DHT22;1894;51.038;13.692;2022-11-15T14:37:47;11.10;99.90
3758;DHT22;1894;51.038;13.692;2022-11-15T14:40:17;11.20;99.90
3758;DHT22;1894;51.038;13.692;2022-11-15T14:42:49;10.90;99.90
3758;DHT22;1894;51.038;13.692;2022-11-15T14:45:18;10.80;99.90
3758;DHT22;1894;51.038;13.692;2022-11-15T14:47:47;10.60;99.90
3758;DHT22;1894;51.038;13.692;2022-11-15T14:50:19;10.20;99.90
3758;DHT22;1894;51.038;13.692;2022-11-15T14:52:48;10.20;99.90
3758;DHT22;1894;51.038;13.692;2022-11-15T14:57:51;10.00;99.90
3758;DHT22;1894;51.038;13.692;2022-11-15T15:00:21;9.80;99.90
3758;DHT22;1894;51.038;13.692;2022-11-15T15:02:52;9.70;99.90
3758;DHT22;1894;51.038;13.692;2022-11-15T15:05:25;9.70;99.90
3758;DHT22;1894;51.038;13.692;2022-11-15T15:07:59;9.40;99.90
3758;DHT22;1894;51.038;13.692;2022-11-15T15:10:36;9.40;99.90
3758;DHT22;1894;51.038;13.692;2022-11-15T15:13:22;9.30;99.90
3758;DHT22;1894;51.038;13.692;2022-11-15T15:15:51;9.20;99.90
3758;DHT22;1894;51.038;13.692;2022-11-15T15:18:19;9.00;99.90
3758;DHT22;1894;51.038;13.692;2022-11-15T15:20:55;8.80;99.90
3758;DHT22;1894;51.038;13.692;2022-11-15T15:23:24;8.80;99.90
3758;DHT22;1894;51.038;13.692;2022-11-15T15:25:53;8.80;99.90
3758;DHT22;1894;51.038;13.692;2022-11-15T15:28:20;8.60;99.90
3758;DHT22;1894;51.038;13.692;2022-11-15T15:30:48;8.50;99.90
3758;DHT22;1894;51.038;13.692;2022-11-15T15:33:16;8.60;99.90
3758;DHT22;1894;51.038;13.692;2022-11-15T15:35:43;8.40;99.90
3758;DHT22;1894;51.038;13.692;2022-11-15T15:38:13;8.30;99.90
3758;DHT22;1894;51.038;13.692;2022-11-15T15:40:42;8.30;99.90
3758;DHT22;1894;51.038;13.692;2022-11-15T15:43:09;8.20;99.90
3758;DHT22;1894;51.038;13.692;2022-11-15T15:45:38;8.10;99.90
3758;DHT22;1894;51.038;13.692;2022-11-15T15:48:14;8.00;99.90
3758;DHT22;1894;51.038;13.692;2022-11-15T15:50:43;7.90;99.90
3758;DHT22;1894;51.038;13.692;2022-11-15T15:53:12;7.90;99.90
3758;DHT22;1894;51.038;13.692;2022-11-15T15:55:40;7.90;99.90
3758;DHT22;1894;51.038;13.692;2022-11-15T15:58:07;7.80;99.90
3758;DHT22;1894;51.038;13.692;2022-11-15T16:00:35;7.80;99.90
3758;DHT22;1894;51.038;13.692;2022-11-15T16:03:05;7.80;99.90
3758;DHT22;1894;51.038;13.692;2022-11-15T16:05:32;7.70;99.90
3758;DHT22;1894;51.038;13.692;2022-11-15T16:07:59;7.70;99.90
3758;DHT22;1894;51.038;13.692;2022-11-15T16:10:29;7.60;99.90
3758;DHT22;1894;51.038;13.692;2022-11-15T16:12:58;7.50;99.90
3758;DHT22;1894;51.038;13.692;2022-11-15T16:15:27;7.50;99.90
3758;DHT22;1894;51.038;13.692;2022-11-15T16:17:58;7.50;99.90
3758;DHT22;1894;51.038;13.692;2022-11-15T16:20:38;7.40;99.90
3758;DHT22;1894;51.038;13.692;2022-11-15T16:23:09;7.40;99.90
3758;DHT22;1894;51.038;13.692;2022-11-15T16:25:42;7.40;99.90
3758;DHT22;1894;51.038;13.692;2022-11-15T16:28:27;7.30;99.90
3758;DHT22;1894;51.038;13.692;2022-11-15T16:31:10;7.20;99.90
3758;DHT22;1894;51.038;13.692;2022-11-15T16:33:39;7.20;99.90
3758;DHT22;1894;51.038;13.692;2022-11-15T16:36:21;7.10;99.90
3758;DHT22;1894;51.038;13.692;2022-11-15T16:38:56;7.10;99.90
3758;DHT22;1894;51.038;13.692;2022-11-15T16:41:24;7.00;99.90
3758;DHT22;1894;51.038;13.692;2022-11-15T16:43:51;7.00;99.90
3758;DHT22;1894;51.038;13.692;2022-11-15T16:46:20;7.00;99.90
3758;DHT22;1894;51.038;13.692;2022-11-15T16:48:49;6.90;99.90
3758;DHT22;1894;51.038;13.692;2022-11-15T16:51:17;6.80;99.90
3758;DHT22;1894;51.038;13.692;2022-11-15T16:53:47;6.90;99.90
3758;DHT22;1894;51.038;13.692;2022-11-15T16:56:27;6.90;99.90
3758;DHT22;1894;51.038;13.692;2022-11-15T16:58:57;6.80;99.90
3758;DHT22;1894;51.038;13.692;2022-11-15T17:01:33;6.80;99.90
3758;DHT22;1894;51.038;13.692;2022-11-15T17:04:18;6.70;99.90
3758;DHT22;1894;51.038;13.692;2022-11-15T17:06:48;6.70;99.90
3758;DHT22;1894;51.038;13.692;2022-11-15T17:09:18;6.50;99.90
3758;DHT22;1894;51.038;13.692;2022-11-15T17:11:49;6.50;99.90
3758;DHT22;1894;51.038;13.692;2022-11-15T17:14:17;6.50;99.90
3758;DHT22;1894;51.038;13.692;2022-11-15T17:16:44;6.50;99.90
3758;DHT22;1894;51.038;13.692;2022-11-15T17:21:41;6.50;99.90
3758;DHT22;1894;51.038;13.692;2022-11-15T17:24:08;6.50;99.90
3758;DHT22;1894;51.038;13.692;2022-11-15T17:26:37;6.40;99.90
3758;DHT22;1894;51.038;13.692;2022-11-15T17:29:07;6.30;99.90
3758;DHT22;1894;51.038;13.692;2022-11-15T17:31:37;6.30;99.90
3758;DHT22;1894;51.038;13.692;2022-11-15T17:34:05;6.30;99.90
3758;DHT22;1894;51.038;13.692;2022-11-15T17:36:33;6.30;99.90
3758;DHT22;1894;51.038;13.692;2022-11-15T17:39:01;6.30;99.90
3758;DHT22;1894;51.038;13.692;2022-11-15T17:41:30;6.20;99.90
3758;DHT22;1894;51.038;13.692;2022-11-15T17:43:58;6.10;99.90
3758;DHT22;1894;51.038;13.692;2022-11-15T17:46:27;6.10;99.90
3758;DHT22;1894;51.038;13.692;2022-11-15T17:48:55;6.10;99.90
3758;DHT22;1894;51.038;13.692;2022-11-15T17:51:23;6.10;99.90
3758;DHT22;1894;51.038;13.692;2022-11-15T17:53:50;6.10;99.90
3758;DHT22;1894;51.038;13.692;2022-11-15T17:56:21;6.10;99.90
3758;DHT22;1894;51.038;13.692;2022-11-15T17:58:55;6.10;99.90
3758;DHT22;1894;51.038;13.692;2022-11-15T18:01:29;6.10;99.90
3758;DHT22;1894;51.038;13.692;2022-11-15T18:03:59;6.00;99.90
3758;DHT22;1894;51.038;13.692;2022-11-15T18:06:29;6.10;99.90
3758;DHT22;1894;51.038;13.692;2022-11-15T18:08:59;6.00;99.90
3758;DHT22;1894;51.038;13.692;2022-11-15T18:11:30;6.00;99.90
3758;DHT22;1894;51.038;13.692;2022-11-15T18:14:01;6.00;99.90
3758;DHT22;1894;51.038;13.692;2022-11-15T18:16:35;6.00;99.90
3758;DHT22;1894;51.038;13.692;2022-11-15T18:19:03;6.00;99.90
3758;DHT22;1894;51.038;13.692;2022-11-15T18:21:34;6.00;99.90
3758;DHT22;1894;51.038;13.692;2022-11-15T18:24:33;5.90;99.90
3758;DHT22;1894;51.038;13.692;2022-11-15T18:27:02;5.90;99.90
3758;DHT22;1894;51.038;13.692;2022-11-15T18:29:31;5.80;99.90
3758;DHT22;1894;51.038;13.692;2022-11-15T18:32:00;5.90;99.90
3758;DHT22;1894;51.038;13.692;2022-11-15T18:34:31;5.80;99.90
3758;DHT22;1894;51.038;13.692;2022-11-15T18:37:00;5.80;99.90
3758;DHT22;1894;51.038;13.692;2022-11-15T18:39:29;5.80;99.90
3758;DHT22;1894;51.038;13.692;2022-11-15T18:41:56;5.80;99.90
3758;DHT22;1894;51.038;13.692;2022-11-15T18:44:24;5.80;99.90
3758;DHT22;1894;51.038;13.692;2022-11-15T18:46:51;5.80;99.90
3758;DHT22;1894;51.038;13.692;2022-11-15T18:49:18;5.70;99.90
3758;DHT22;1894;51.038;13.692;2022-11-15T18:51:46;5.70;99.90
3758;DHT22;1894;51.038;13.692;2022-11-15T18:54:15;5.70;99.90
3758;DHT22;1894;51.038;13.692;2022-11-15T18:56:43;5.70;99.90
3758;DHT22;1894;51.038;13.692;2022-11-15T18:59:12;5.70;99.90
3758;DHT22;1894;51.038;13.692;2022-11-15T19:01:44;5.60;99.90
3758;DHT22;1894;51.038;13.692;2022-11-15T19:04:18;5.70;99.90
3758;DHT22;1894;51.038;13.692;2022-11-15T19:06:48;5.60;99.90
3758;DHT22;1894;51.038;13.692;2022-11-15T19:09:17;5.60;99.90
3758;DHT22;1894;51.038;13.692;2022-11-15T19:11:46;5.60;99.90
3758;DHT22;1894;51.038;13.692;2022-11-15T19:14:16;5.60;99.90
3758;DHT22;1894;51.038;13.692;2022-11-15T19:16:45;5.60;99.90
3758;DHT22;1894;51.038;13.692;2022-11-15T19:19:20;5.50;99.90
3758;DHT22;1894;51.038;13.692;2022-11-15T19:21:49;5.50;99.90
3758;DHT22;1894;51.038;13.692;2022-11-15T19:24:17;5.50;99.90
3758;DHT22;1894;51.038;13.692;2022-11-15T19:26:45;5.50;99.90
3758;DHT22;1894;51.038;13.692;2022-11-15T19:29:12;5.50;99.90
3758;DHT22;1894;51.038;13.692;2022-11-15T19:31:44;5.50;99.90
3758;DHT22;1894;51.038;13.692;2022-11-15T19:34:11;5.40;99.90
3758;DHT22;1894;51.038;13.692;2022-11-15T19:36:40;5.40;99.90
3758;DHT22;1894;51.038;13.692;2022-11-15T19:39:10;5.40;99.90
3758;DHT22;1894;51.038;13.692;2022-11-15T19:41:41;5.30;99.90
3758;DHT22;1894;51.038;13.692;2022-11-15T19:44:10;5.30;99.90
3758;DHT22;1894;51.038;13.692;2022-11-15T19:46:39;5.30;99.90
3758;DHT22;1894;51.038;13.692;2022-11-15T19:49:06;5.40;99.90
3758;DHT22;1894;51.038;13.692;2022-11-15T19:51:36;5.30;99.90
3758;DHT22;1894;51.038;13.692;2022-11-15T19:54:05;5.30;99.90
3758;DHT22;1894;51.038;13.692;2022-11-15T19:56:35;5.30;99.90
3758;DHT22;1894;51.038;13.692;2022-11-15T19:59:03;5.30;99.90
3758;DHT22;1894;51.038;13.692;2022-11-15T20:01:33;5.20;99.90
3758;DHT22;1894;51.038;13.692;2022-11-15T20:04:02;5.20;99.90
3758;DHT22;1894;51.038;13.692;2022-11-15T20:06:36;5.20;99.90
3758;DHT22;1894;51.038;13.692;2022-11-15T20:09:07;5.30;99.90
3758;DHT22;1894;51.038;13.692;2022-11-15T20:11:37;5.20;99.90
3758;DHT22;1894;51.038;13.692;2022-11-15T20:14:05;5.20;99.90